Time;durP1;ratioP1;P1;durP2;ratioP2;P2;SDS_P1;SDS_P2;PMS_P1;PMS_P2;Temp;Humidity;BMP_temperature;BMP_pressure;BME280_temperature;BME280_humidity;BME280_pressure;Samples;Min_cycle;Max_cycle;Signal;HPM_P1;HPM_P2
2021/09/16 04:33:05;;;;;;;2.90;2.70;;;17.30;99.90;;;;;;5011296;26;20488;-84
2021/09/16 04:35:31;;;;;;;2.30;1.80;;;17.30;99.90;;;;;;5016579;28;20449;-83
2021/09/16 04:37:56;;;;;;;1.90;1.80;;;17.30;99.90;;;;;;5021960;28;20178;-82
2021/09/16 04:40:22;;;;;;;1.60;1.50;;;17.40;99.90;;;;;;5022814;28;20245;-84
2021/09/16 04:42:47;;;;;;;2.43;2.33;;;17.40;99.90;;;;;;5055478;28;20212;-82
2021/09/16 04:45:13;;;;;;;2.40;2.20;;;17.40;99.90;;;;;;5063208;28;20246;-83
2021/09/16 04:47:40;;;;;;;1.73;1.63;;;17.40;99.90;;;;;;5062579;28;20306;-84
2021/09/16 04:50:10;;;;;;;2.40;2.00;;;17.40;99.90;;;;;;5065232;28;20169;-82
2021/09/16 04:52:35;;;;;;;2.50;2.30;;;17.40;99.90;;;;;;5073092;28;20416;-82
2021/09/16 04:55:01;;;;;;;2.50;2.40;;;17.40;99.90;;;;;;5060322;28;20417;-81
2021/09/16 04:57:27;;;;;;;3.30;3.10;;;17.40;99.90;;;;;;5041844;28;20189;-82
2021/09/16 04:59:54;;;;;;;3.63;2.80;;;17.40;99.90;;;;;;5042560;28;20188;-81
2021/09/16 05:02:20;;;;;;;7.00;2.30;;;17.40;99.90;;;;;;5038952;28;20190;-79
2021/09/16 05:04:45;;;;;;;2.80;2.60;;;17.40;99.90;;;;;;5039922;28;20405;-78
2021/09/16 05:07:11;;;;;;;3.27;2.40;;;17.40;99.90;;;;;;5039492;28;20455;-78
2021/09/16 05:09:36;;;;;;;2.80;2.60;;;17.40;99.90;;;;;;5039835;28;20170;-78
2021/09/16 05:12:02;;;;;;;2.97;2.77;;;17.40;99.90;;;;;;5020826;28;20282;-79
2021/09/16 05:14:28;;;;;;;4.73;2.10;;;17.40;99.90;;;;;;5022261;28;20174;-80
2021/09/16 05:16:53;;;;;;;3.17;2.27;;;17.40;99.90;;;;;;5039135;28;20213;-78
2021/09/16 05:19:19;;;;;;;2.83;2.43;;;17.50;99.90;;;;;;5036613;28;20521;-80
2021/09/16 05:21:45;;;;;;;2.30;2.10;;;17.50;99.90;;;;;;5036518;28;20190;-81
2021/09/16 05:24:16;;;;;;;3.33;2.10;;;17.50;99.90;;;;;;5035637;28;20174;-78
2021/09/16 05:26:43;;;;;;;4.20;3.50;;;17.50;99.90;;;;;;5034477;28;20408;-78
2021/09/16 05:29:09;;;;;;;2.43;1.90;;;17.60;99.90;;;;;;5033948;28;21002;-78
2021/09/16 05:31:34;;;;;;;5.30;2.63;;;17.60;99.90;;;;;;5012543;28;20460;-80
2021/09/16 05:34:00;;;;;;;4.40;3.40;;;17.60;99.90;;;;;;5033901;28;20182;-78
2021/09/16 05:36:25;;;;;;;5.70;3.37;;;17.50;99.90;;;;;;5035413;28;20527;-81
2021/09/16 05:38:51;;;;;;;3.63;2.30;;;17.50;99.90;;;;;;5035621;28;20667;-79
2021/09/16 05:41:16;;;;;;;2.13;2.03;;;17.60;99.90;;;;;;5034386;28;20200;-79
2021/09/16 05:43:42;;;;;;;2.90;2.50;;;17.60;99.90;;;;;;5035672;28;20197;-79
2021/09/16 05:46:07;;;;;;;4.53;2.97;;;17.60;99.90;;;;;;5035272;28;20246;-79
2021/09/16 05:48:33;;;;;;;2.87;2.67;;;17.60;99.90;;;;;;5035159;28;20263;-79
2021/09/16 05:50:58;;;;;;;3.00;2.70;;;17.60;99.90;;;;;;5035175;28;20232;-78
2021/09/16 05:53:24;;;;;;;3.67;3.00;;;17.60;99.90;;;;;;5036115;28;20205;-78
2021/09/16 05:55:49;;;;;;;3.03;2.83;;;17.60;99.90;;;;;;5036266;28;20178;-79
2021/09/16 05:58:15;;;;;;;4.27;2.90;;;17.60;99.90;;;;;;5036360;28;20178;-79
2021/09/16 06:00:40;;;;;;;2.50;2.30;;;17.60;99.90;;;;;;5036023;28;20183;-79
2021/09/16 06:03:06;;;;;;;4.57;3.30;;;17.60;99.90;;;;;;5036086;28;20247;-80
2021/09/16 06:05:31;;;;;;;7.30;4.93;;;17.60;99.90;;;;;;5036342;28;20342;-79
2021/09/16 06:07:57;;;;;;;6.03;4.57;;;17.60;99.90;;;;;;5036409;28;20197;-80
2021/09/16 06:10:22;;;;;;;5.40;4.90;;;17.60;99.90;;;;;;5036751;28;20236;-82
2021/09/16 06:12:48;;;;;;;3.30;3.10;;;17.60;99.90;;;;;;5034269;28;20610;-80
2021/09/16 06:15:13;;;;;;;3.37;3.07;;;17.60;99.90;;;;;;5036203;28;20257;-80
2021/09/16 06:17:39;;;;;;;3.33;3.03;;;17.70;99.90;;;;;;5018693;28;20182;-81
2021/09/16 06:20:07;;;;;;;3.00;2.33;;;17.70;99.90;;;;;;5034921;28;20710;-80
2021/09/16 06:22:33;;;;;;;2.70;2.50;;;17.70;99.90;;;;;;5034941;28;20229;-81
2021/09/16 06:24:58;;;;;;;4.87;2.57;;;17.80;99.90;;;;;;5034548;28;20789;-80
2021/09/16 06:27:24;;;;;;;6.67;3.60;;;17.80;99.90;;;;;;5033569;28;20413;-81
2021/09/16 06:29:49;;;;;;;3.43;2.50;;;17.80;99.90;;;;;;5035206;28;20178;-81
2021/09/16 06:32:15;;;;;;;2.97;2.63;;;17.80;99.90;;;;;;5054413;28;20216;-81
2021/09/16 06:34:40;;;;;;;5.73;4.40;;;17.90;99.90;;;;;;5054713;28;20711;-80
2021/09/16 06:37:06;;;;;;;6.53;5.40;;;17.90;99.90;;;;;;5054963;28;20204;-81
2021/09/16 06:39:31;;;;;;;4.10;3.70;;;17.90;99.90;;;;;;5051388;28;20182;-80
2021/09/16 06:41:57;;;;;;;4.00;3.70;;;17.90;99.90;;;;;;5033594;28;20194;-80
2021/09/16 06:44:22;;;;;;;3.60;2.77;;;17.90;99.90;;;;;;5033827;28;20674;-79
2021/09/16 06:46:48;;;;;;;3.50;2.43;;;18.00;99.90;;;;;;5033741;28;20178;-78
2021/09/16 06:49:13;;;;;;;2.57;2.37;;;18.00;99.90;;;;;;5033958;28;20201;-79
2021/09/16 06:51:39;;;;;;;2.60;2.23;;;17.90;99.90;;;;;;5033437;28;20185;-79
2021/09/16 06:54:05;;;;;;;2.40;1.80;;;18.00;99.90;;;;;;5033446;28;20216;-79
2021/09/16 06:56:30;;;;;;;2.27;2.17;;;18.00;99.90;;;;;;5033335;28;20181;-77
2021/09/16 06:58:56;;;;;;;3.60;3.30;;;17.90;99.90;;;;;;5032118;28;20174;-78
2021/09/16 07:01:22;;;;;;;5.20;2.43;;;17.90;99.90;;;;;;5033202;28;20210;-79
2021/09/16 07:03:48;;;;;;;5.90;3.20;;;17.90;99.90;;;;;;5033402;28;20248;-77
2021/09/16 07:06:14;;;;;;;2.60;2.40;;;17.90;99.90;;;;;;5033350;28;20507;-78
2021/09/16 07:08:39;;;;;;;3.87;2.60;;;18.00;99.90;;;;;;5033193;28;20217;-79
2021/09/16 07:11:04;;;;;;;2.50;2.40;;;17.90;99.90;;;;;;5032911;28;20234;-78
2021/09/16 07:13:30;;;;;;;2.57;2.43;;;17.90;99.90;;;;;;5031694;28;20190;-78
2021/09/16 07:15:56;;;;;;;3.40;2.20;;;17.90;99.90;;;;;;5031918;28;20182;-78
2021/09/16 07:18:21;;;;;;;5.20;2.27;;;17.90;99.90;;;;;;5031852;28;20186;-77
2021/09/16 07:20:47;;;;;;;4.73;2.30;;;17.90;99.90;;;;;;5031644;28;20224;-77
2021/09/16 07:23:12;;;;;;;6.23;3.50;;;18.00;99.90;;;;;;5031785;28;20174;-78
2021/09/16 07:25:38;;;;;;;19.13;7.60;;;18.00;99.90;;;;;;5031786;28;20277;-78
2021/09/16 07:28:04;;;;;;;13.93;9.10;;;17.90;99.90;;;;;;5031532;28;20682;-77
2021/09/16 07:30:29;;;;;;;18.40;12.93;;;17.90;99.90;;;;;;5013852;28;20190;-76
2021/09/16 07:32:55;;;;;;;14.53;11.93;;;17.80;99.90;;;;;;5031190;28;20479;-77
2021/09/16 07:35:22;;;;;;;17.33;11.90;;;17.70;99.90;;;;;;5031527;28;20960;-80
2021/09/16 07:37:47;;;;;;;17.33;11.10;;;17.70;99.90;;;;;;5032971;28;20268;-77
2021/09/16 07:40:13;;;;;;;16.67;11.20;;;17.60;99.90;;;;;;5031193;28;20511;-78
2021/09/16 07:42:39;;;;;;;11.17;9.57;;;17.60;99.90;;;;;;5006850;28;20649;-78
2021/09/16 07:45:05;;;;;;;13.40;10.30;;;17.50;99.90;;;;;;5031294;28;20237;-78
2021/09/16 07:47:31;;;;;;;17.00;9.87;;;17.50;99.90;;;;;;5031209;28;20268;-78
2021/09/16 07:49:56;;;;;;;17.33;12.07;;;17.40;99.90;;;;;;5030736;28;20516;-77
2021/09/16 07:52:22;;;;;;;12.40;10.70;;;17.40;99.90;;;;;;5030536;28;20202;-78
2021/09/16 07:54:47;;;;;;;13.17;10.23;;;17.40;99.90;;;;;;5013199;28;20170;-77
2021/09/16 07:57:13;;;;;;;15.57;10.17;;;17.40;99.90;;;;;;5031494;28;20189;-73
2021/09/16 07:59:38;;;;;;;17.13;11.50;;;17.30;99.90;;;;;;5031335;28;20185;-80
2021/09/16 08:02:04;;;;;;;17.27;12.57;;;17.30;99.90;;;;;;5031427;28;20279;-76
2021/09/16 08:04:29;;;;;;;17.57;12.30;;;17.20;99.90;;;;;;5032490;28;20650;-79
2021/09/16 08:06:55;;;;;;;18.13;13.30;;;17.10;99.90;;;;;;5014128;28;20198;-79
2021/09/16 08:09:20;;;;;;;16.30;12.40;;;17.10;99.90;;;;;;5031301;28;20302;-80
2021/09/16 08:11:46;;;;;;;15.00;10.00;;;17.10;99.90;;;;;;5014767;28;20196;-76
2021/09/16 08:14:11;;;;;;;12.80;8.83;;;17.20;99.90;;;;;;5017407;28;20173;-77
2021/09/16 08:16:38;;;;;;;9.27;6.63;;;17.20;99.90;;;;;;5035351;28;20681;-77
2021/09/16 08:19:04;;;;;;;11.60;5.80;;;17.20;99.90;;;;;;5035031;28;20190;-77
2021/09/16 08:21:30;;;;;;;5.23;4.70;;;17.30;99.90;;;;;;5034895;28;20451;-79
2021/09/16 08:23:56;;;;;;;7.07;6.47;;;17.30;99.90;;;;;;5035042;28;20482;-77
2021/09/16 08:26:22;;;;;;;4.00;3.70;;;17.30;99.90;;;;;;5035273;28;20180;-76
2021/09/16 08:28:48;;;;;;;5.93;4.73;;;17.20;99.90;;;;;;5034260;28;20401;-77
2021/09/16 08:31:14;;;;;;;5.87;5.07;;;17.20;99.90;;;;;;5034798;28;20482;-77
2021/09/16 08:33:40;;;;;;;5.30;4.03;;;17.20;99.90;;;;;;5035201;28;20400;-78
2021/09/16 08:36:05;;;;;;;7.67;4.53;;;17.20;99.90;;;;;;5035098;28;20199;-77
2021/09/16 08:38:32;;;;;;;4.00;3.70;;;17.30;99.90;;;;;;5035044;28;20183;-77
2021/09/16 08:40:57;;;;;;;5.03;3.07;;;17.30;99.90;;;;;;5017009;28;20239;-78
2021/09/16 08:43:29;;;;;;;4.13;2.93;;;17.30;99.90;;;;;;5034830;28;20498;-79
2021/09/16 08:45:55;;;;;;;3.20;2.90;;;17.30;99.90;;;;;;5034994;28;20536;-78
2021/09/16 08:48:21;;;;;;;3.20;2.20;;;17.30;99.90;;;;;;5034959;28;20452;-78
2021/09/16 08:50:46;;;;;;;4.40;1.90;;;17.20;99.90;;;;;;5034975;28;20435;-76
2021/09/16 08:53:17;;;;;;;2.40;2.20;;;17.20;99.90;;;;;;5034812;28;20181;-78
2021/09/16 08:55:45;;;;;;;2.67;2.53;;;17.20;99.90;;;;;;5035397;28;20667;-78
2021/09/16 08:58:11;;;;;;;4.40;4.10;;;17.20;99.90;;;;;;5035377;28;20490;-78
2021/09/16 09:00:37;;;;;;;5.10;4.70;;;17.10;99.90;;;;;;5033977;28;20524;-79
2021/09/16 09:03:04;;;;;;;7.53;6.80;;;17.10;99.90;;;;;;5030975;28;20436;-77
2021/09/16 09:05:30;;;;;;;7.23;6.53;;;17.10;99.90;;;;;;5016274;28;20510;-78
2021/09/16 09:08:02;;;;;;;9.03;8.23;;;17.00;99.90;;;;;;5034091;28;20463;-78
2021/09/16 09:10:48;;;;;;;10.77;8.93;;;17.00;99.90;;;;;;5031232;28;20779;-76
2021/09/16 09:13:33;;;;;;;9.20;8.40;;;16.90;99.90;;;;;;5032099;28;20436;-78
2021/09/16 09:16:07;;;;;;;9.43;8.57;;;16.90;99.90;;;;;;5032489;28;20555;-79
2021/09/16 09:18:44;;;;;;;10.90;9.00;;;16.90;99.90;;;;;;5031750;28;20529;-76
2021/09/16 09:21:11;;;;;;;10.40;9.40;;;16.90;99.90;;;;;;5031232;28;20448;-77
2021/09/16 09:23:41;;;;;;;8.00;7.30;;;16.90;99.90;;;;;;5032830;28;20484;-78
2021/09/16 09:26:29;;;;;;;7.40;6.70;;;16.90;99.90;;;;;;5033335;28;20419;-78
2021/09/16 09:29:11;;;;;;;7.33;6.63;;;16.80;99.90;;;;;;5031463;28;20542;-77
2021/09/16 09:31:40;;;;;;;5.60;5.10;;;16.80;99.90;;;;;;5007609;28;20768;-77
2021/09/16 09:34:28;;;;;;;5.70;5.20;;;16.80;99.90;;;;;;5033429;28;20452;-77
2021/09/16 09:37:10;;;;;;;5.17;4.67;;;16.70;99.90;;;;;;5031911;28;20413;-78
2021/09/16 09:39:35;;;;;;;14.07;7.07;;;16.70;99.90;;;;;;5032305;28;20420;-79
2021/09/16 09:42:19;;;;;;;11.30;8.70;;;16.70;99.90;;;;;;5033686;28;20443;-78
2021/09/16 09:44:45;;;;;;;10.63;8.50;;;16.70;99.90;;;;;;5033413;28;20180;-78
2021/09/16 09:47:11;;;;;;;9.87;8.70;;;16.60;99.90;;;;;;5033136;28;20503;-79
2021/09/16 09:49:38;;;;;;;9.87;8.33;;;16.60;99.90;;;;;;5033208;28;20209;-78
2021/09/16 09:52:04;;;;;;;13.10;10.77;;;16.60;99.90;;;;;;5015113;28;20208;-78
2021/09/16 09:54:36;;;;;;;12.67;10.00;;;16.50;99.90;;;;;;5033391;28;20423;-78
2021/09/16 09:57:05;;;;;;;17.73;12.30;;;16.50;99.90;;;;;;5032982;28;20409;-78
2021/09/16 09:59:52;;;;;;;17.17;12.43;;;16.40;99.90;;;;;;5030829;28;20794;-78
2021/09/16 10:02:19;;;;;;;17.07;14.07;;;16.40;99.90;;;;;;5031342;28;20439;-79
2021/09/16 10:04:46;;;;;;;20.43;14.57;;;16.40;99.90;;;;;;5033149;28;20413;-77
2021/09/16 10:07:35;;;;;;;25.17;14.27;;;16.40;99.90;;;;;;5033626;28;20424;-79
2021/09/16 10:10:04;;;;;;;19.00;13.30;;;16.40;99.90;;;;;;5032868;28;20782;-79
2021/09/16 10:12:30;;;;;;;20.57;14.47;;;16.30;99.90;;;;;;5032133;28;20436;-79
2021/09/16 10:14:56;;;;;;;22.83;12.57;;;16.30;99.90;;;;;;5035195;28;20475;-80
2021/09/16 10:17:21;;;;;;;16.47;12.30;;;16.40;99.90;;;;;;5035785;28;20189;-80
2021/09/16 10:19:47;;;;;;;20.47;13.23;;;16.40;99.90;;;;;;5033340;28;20183;-77
2021/09/16 10:22:13;;;;;;;18.57;12.63;;;16.40;99.90;;;;;;5032936;28;20425;-77
2021/09/16 10:24:40;;;;;;;14.20;11.60;;;16.50;99.90;;;;;;5034068;28;20189;-78
2021/09/16 10:27:26;;;;;;;17.53;11.47;;;16.60;99.90;;;;;;5016108;28;20418;-78
2021/09/16 10:29:51;;;;;;;16.20;10.80;;;16.70;99.90;;;;;;5033118;28;20450;-78
2021/09/16 10:32:20;;;;;;;17.33;12.60;;;16.80;99.90;;;;;;5034030;28;20553;-78
2021/09/16 10:34:56;;;;;;;13.80;11.80;;;16.80;99.90;;;;;;5047873;28;20183;-79
2021/09/16 10:37:23;;;;;;;20.90;13.50;;;16.80;99.90;;;;;;5033505;28;20389;-81
2021/09/16 10:39:50;;;;;;;15.37;12.90;;;16.90;99.90;;;;;;5033109;28;20412;-79
2021/09/16 10:42:16;;;;;;;16.10;12.33;;;17.10;99.90;;;;;;5033069;28;20425;-78
2021/09/16 10:44:43;;;;;;;13.83;11.40;;;17.20;99.90;;;;;;5033558;28;20405;-79
2021/09/16 10:47:20;;;;;;;15.20;12.50;;;17.30;99.90;;;;;;5033009;28;20436;-79
2021/09/16 10:49:48;;;;;;;18.47;12.87;;;17.30;99.90;;;;;;5033029;28;20412;-78
2021/09/16 10:52:13;;;;;;;19.80;13.60;;;17.20;99.90;;;;;;5032793;28;20432;-79
2021/09/16 10:54:39;;;;;;;20.10;14.13;;;17.20;99.90;;;;;;5032923;28;20401;-78
2021/09/16 10:57:26;;;;;;;22.03;15.00;;;17.10;99.90;;;;;;5033009;28;20185;-79
2021/09/16 10:59:52;;;;;;;16.20;13.20;;;17.10;99.90;;;;;;5015298;28;20232;-79
2021/09/16 11:02:26;;;;;;;26.20;16.67;;;17.10;99.90;;;;;;5032714;28;20424;-79
2021/09/16 11:04:54;;;;;;;22.10;15.27;;;17.00;99.90;;;;;;5032682;28;20177;-79
2021/09/16 11:07:32;;;;;;;19.23;14.03;;;16.90;99.90;;;;;;5032705;28;20409;-79
2021/09/16 11:10:24;;;;;;;22.30;14.90;;;16.90;99.90;;;;;;5032519;28;20413;-76
2021/09/16 11:12:55;;;;;;;22.93;15.10;;;17.00;99.90;;;;;;5033964;28;20437;-77
2021/09/16 11:15:23;;;;;;;29.57;16.90;;;17.10;99.90;;;;;;5032582;28;20409;-77
2021/09/16 11:17:49;;;;;;;21.90;14.53;;;17.10;99.90;;;;;;5015440;28;20435;-77
2021/09/16 11:20:15;;;;;;;23.13;15.43;;;17.10;99.90;;;;;;5032831;28;20771;-78
2021/09/16 11:22:41;;;;;;;25.63;16.80;;;17.10;99.90;;;;;;5032322;28;20678;-77
2021/09/16 11:25:08;;;;;;;21.83;15.93;;;17.10;99.90;;;;;;5032144;28;20444;-78
2021/09/16 11:27:40;;;;;;;20.80;15.63;;;17.10;99.90;;;;;;5032608;28;20224;-78
2021/09/16 11:30:14;;;;;;;21.40;16.27;;;17.20;99.90;;;;;;5015745;28;20478;-79
2021/09/16 11:32:40;;;;;;;28.97;16.20;;;17.30;99.90;;;;;;5033191;28;20456;-77
2021/09/16 11:35:12;;;;;;;20.60;14.13;;;17.50;99.90;;;;;;5031020;28;20513;-79
2021/09/16 11:37:42;;;;;;;18.43;12.67;;;17.60;99.90;;;;;;5042638;28;20424;-78
2021/09/16 11:40:12;;;;;;;17.43;14.93;;;17.60;99.90;;;;;;5051656;28;20473;-79
2021/09/16 11:42:43;;;;;;;16.60;13.70;;;17.60;99.90;;;;;;5051589;28;20463;-78
2021/09/16 11:45:12;;;;;;;19.47;14.23;;;17.50;99.90;;;;;;5051977;28;20495;-79
2021/09/16 11:47:50;;;;;;;19.83;13.87;;;17.50;99.90;;;;;;5052896;28;20790;-80
2021/09/16 11:50:43;;;;;;;24.53;14.70;;;17.60;99.90;;;;;;5051586;28;20412;-78
2021/09/16 11:53:10;;;;;;;19.43;14.23;;;17.50;99.90;;;;;;5051604;28;20831;-79
2021/09/16 11:55:38;;;;;;;21.93;14.77;;;17.50;99.90;;;;;;5052240;28;20423;-79
2021/09/16 11:58:15;;;;;;;23.87;14.30;;;17.60;99.90;;;;;;5053032;28;20874;-78
2021/09/16 12:00:42;;;;;;;20.30;16.70;;;17.70;99.90;;;;;;5049791;28;20916;-78
2021/09/16 12:03:10;;;;;;;16.97;13.83;;;17.90;99.90;;;;;;5033973;28;20428;-78
2021/09/16 12:05:42;;;;;;;18.13;15.30;;;18.10;99.90;;;;;;5031850;28;20504;-78
2021/09/16 12:08:11;;;;;;;18.90;14.53;;;18.20;99.90;;;;;;5031645;28;20500;-78
2021/09/16 12:11:03;;;;;;;19.53;15.37;;;18.20;99.90;;;;;;5031447;28;20409;-79
2021/09/16 12:13:33;;;;;;;18.07;14.77;;;18.10;99.90;;;;;;5031547;28;20842;-77
2021/09/16 12:16:13;;;;;;;19.13;15.33;;;18.20;99.90;;;;;;5014450;28;20491;-78
2021/09/16 12:18:45;;;;;;;18.37;14.97;;;18.10;99.90;;;;;;5032913;28;20490;-76
2021/09/16 12:21:17;;;;;;;20.97;15.90;;;18.00;99.90;;;;;;5031916;28;20527;-78
2021/09/16 12:23:50;;;;;;;20.37;16.97;;;17.90;99.90;;;;;;5032036;28;20473;-78
2021/09/16 12:26:25;;;;;;;18.40;14.87;;;17.90;99.90;;;;;;5032182;28;20424;-79
2021/09/16 12:28:56;;;;;;;27.80;15.40;;;17.90;99.90;;;;;;5035297;28;20559;-78
2021/09/16 12:31:36;;;;;;;21.10;15.80;;;17.90;99.90;;;;;;5046809;28;20455;-79
2021/09/16 12:34:13;;;;;;;23.50;16.00;;;18.00;99.90;;;;;;5052003;28;20423;-79
2021/09/16 12:36:55;;;;;;;20.23;16.47;;;17.90;99.90;;;;;;5034110;28;20936;-79
2021/09/16 12:39:22;;;;;;;27.83;18.03;;;18.00;99.90;;;;;;5051803;28;20462;-78
2021/09/16 12:41:59;;;;;;;29.40;16.10;;;17.90;99.90;;;;;;5051202;28;20827;-79
2021/09/16 12:44:38;;;;;;;22.60;16.90;;;17.90;99.90;;;;;;5033328;28;20510;-77
2021/09/16 12:47:14;;;;;;;25.70;18.67;;;18.00;99.90;;;;;;5051638;28;20420;-78
2021/09/16 12:49:44;;;;;;;27.20;17.10;;;17.90;99.90;;;;;;5051090;28;20481;-78
2021/09/16 12:52:23;;;;;;;23.37;16.30;;;18.00;99.90;;;;;;5051426;28;20443;-77
2021/09/16 12:54:57;;;;;;;21.03;16.10;;;18.00;99.90;;;;;;5051796;28;20416;-79
2021/09/16 12:57:25;;;;;;;23.83;17.20;;;18.00;99.90;;;;;;5052678;28;20411;-78
2021/09/16 12:59:53;;;;;;;21.03;18.00;;;17.90;99.90;;;;;;5036963;28;20523;-78
2021/09/16 13:02:20;;;;;;;22.80;18.53;;;17.80;99.90;;;;;;5043307;28;20881;-77
2021/09/16 13:04:52;;;;;;;27.17;20.20;;;17.70;99.90;;;;;;5035005;28;20421;-77
2021/09/16 13:07:18;;;;;;;25.30;19.60;;;17.70;99.90;;;;;;5035521;28;20421;-78
2021/09/16 13:09:44;;;;;;;28.50;21.07;;;17.70;99.90;;;;;;5035114;28;20464;-76
2021/09/16 13:12:15;;;;;;;27.80;21.00;;;17.60;99.90;;;;;;5034871;28;20611;-75
2021/09/16 13:14:40;;;;;;;27.43;19.93;;;17.50;99.90;;;;;;5034920;28;20185;-76
2021/09/16 13:17:06;;;;;;;28.67;20.50;;;17.50;99.90;;;;;;5034621;28;20831;-77
2021/09/16 13:19:32;;;;;;;37.10;21.90;;;17.40;99.90;;;;;;5034745;28;20573;-77
2021/09/16 13:21:57;;;;;;;26.23;21.43;;;17.30;99.90;;;;;;5034142;28;20496;-77
2021/09/16 13:24:23;;;;;;;29.03;21.57;;;17.40;99.90;;;;;;5034647;28;20595;-78
2021/09/16 13:26:48;;;;;;;25.43;20.37;;;17.50;99.90;;;;;;5016547;28;20189;-77
2021/09/16 13:29:14;;;;;;;26.47;20.97;;;17.60;99.90;;;;;;5034700;28;20202;-78
2021/09/16 13:31:39;;;;;;;25.33;21.00;;;17.70;99.90;;;;;;5033911;28;20214;-78
2021/09/16 13:34:05;;;;;;;30.27;20.87;;;17.70;99.90;;;;;;5016672;28;20193;-77
2021/09/16 13:36:31;;;;;;;29.90;20.83;;;17.80;99.90;;;;;;5034773;28;20243;-77
2021/09/16 13:38:58;;;;;;;33.53;20.80;;;17.80;99.90;;;;;;5034932;28;20751;-77
2021/09/16 13:41:24;;;;;;;27.60;21.63;;;17.70;99.90;;;;;;5017476;28;20208;-77
2021/09/16 13:43:49;;;;;;;25.30;19.43;;;17.70;99.90;;;;;;5034766;28;20412;-77
2021/09/16 13:46:15;;;;;;;25.70;19.40;;;17.80;99.90;;;;;;5034708;28;20180;-77
2021/09/16 13:48:40;;;;;;;23.17;19.10;;;17.80;99.90;;;;;;5034575;28;20263;-78
2021/09/16 13:51:06;;;;;;;22.33;18.87;;;17.70;99.90;;;;;;5034756;28;20312;-77
2021/09/16 13:53:31;;;;;;;19.33;17.10;;;17.70;99.90;;;;;;5016626;28;20193;-77
2021/09/16 13:55:57;;;;;;;26.17;20.40;;;17.70;99.90;;;;;;5017406;28;20520;-76
2021/09/16 13:58:23;;;;;;;28.33;21.33;;;17.70;99.90;;;;;;5033896;28;20220;-76
2021/09/16 14:00:50;;;;;;;23.13;18.80;;;17.70;99.90;;;;;;5033771;28;20244;-76
2021/09/16 14:03:15;;;;;;;31.37;20.47;;;17.80;99.90;;;;;;5034257;28;20178;-78
2021/09/16 14:05:41;;;;;;;25.40;19.23;;;17.90;99.90;;;;;;5033914;28;20843;-77
2021/09/16 14:08:07;;;;;;;24.63;18.10;;;18.00;99.90;;;;;;5031549;28;20678;-76
2021/09/16 14:10:32;;;;;;;21.20;17.83;;;18.00;99.90;;;;;;5015547;28;20571;-76
2021/09/16 14:12:57;;;;;;;23.63;16.07;;;18.10;99.90;;;;;;5014251;28;20190;-77
2021/09/16 14:15:23;;;;;;;19.53;15.10;;;18.00;99.90;;;;;;5014392;28;20546;-77
2021/09/16 14:17:49;;;;;;;18.53;16.60;;;17.90;99.90;;;;;;5014256;28;20187;-77
2021/09/16 14:20:14;;;;;;;25.60;17.03;;;17.90;99.90;;;;;;5013765;28;20193;-76
2021/09/16 14:22:40;;;;;;;20.40;15.67;;;17.90;99.90;;;;;;5013299;28;20198;-76
2021/09/16 14:25:06;;;;;;;18.93;16.07;;;17.90;99.90;;;;;;5014479;28;20183;-76
2021/09/16 14:27:32;;;;;;;18.63;16.63;;;17.90;99.90;;;;;;5013811;28;20820;-76
2021/09/16 14:29:57;;;;;;;18.93;15.97;;;17.80;99.90;;;;;;5013308;28;20493;-76
2021/09/16 14:32:23;;;;;;;21.00;15.60;;;17.80;99.90;;;;;;5052517;28;20291;-76
2021/09/16 14:34:48;;;;;;;17.03;13.63;;;17.80;99.90;;;;;;5052694;28;20173;-77
2021/09/16 14:37:14;;;;;;;16.70;15.00;;;17.80;99.90;;;;;;5053428;28;20634;-78
2021/09/16 14:39:40;;;;;;;17.23;13.83;;;17.90;99.90;;;;;;5053484;28;20209;-77
2021/09/16 14:42:06;;;;;;;17.17;13.50;;;18.10;99.90;;;;;;5054560;28;20292;-78
2021/09/16 14:44:33;;;;;;;23.23;13.00;;;18.20;99.90;;;;;;5054825;28;20919;-78
2021/09/16 14:46:59;;;;;;;16.03;12.20;;;18.30;99.90;;;;;;5055299;28;20419;-77
2021/09/16 14:49:25;;;;;;;14.23;12.40;;;18.30;99.90;;;;;;5037552;28;20451;-78
2021/09/16 14:51:50;;;;;;;17.33;11.73;;;18.40;99.90;;;;;;5053444;28;20435;-78
2021/09/16 14:54:16;;;;;;;12.60;11.00;;;18.40;99.90;;;;;;5053060;28;20219;-78
2021/09/16 14:56:41;;;;;;;11.93;10.83;;;18.40;99.90;;;;;;5055232;28;20248;-80
2021/09/16 14:59:07;;;;;;;18.30;12.40;;;18.40;99.90;;;;;;5056250;28;20178;-79
2021/09/16 15:01:32;;;;;;;12.67;11.47;;;18.40;99.90;;;;;;5055868;28;20223;-80
2021/09/16 15:03:58;;;;;;;15.70;12.07;;;18.40;99.90;;;;;;5055246;28;20231;-79
2021/09/16 15:06:24;;;;;;;12.97;11.60;;;18.40;99.90;;;;;;5056151;28;20643;-80
2021/09/16 15:08:49;;;;;;;17.10;10.30;;;18.40;99.90;;;;;;5055419;28;20208;-79
2021/09/16 15:11:15;;;;;;;14.10;11.50;;;18.40;99.90;;;;;;5054541;28;20439;-77
2021/09/16 15:13:42;;;;;;;13.33;11.57;;;18.40;99.90;;;;;;5052780;28;20642;-77
2021/09/16 15:16:08;;;;;;;12.87;11.40;;;18.30;99.90;;;;;;5052765;28;20661;-77
2021/09/16 15:18:34;;;;;;;10.87;9.40;;;18.30;99.90;;;;;;5038364;28;20424;-78
2021/09/16 15:20:59;;;;;;;11.93;10.63;;;18.40;99.90;;;;;;5034412;28;20202;-79
2021/09/16 15:23:25;;;;;;;11.57;10.20;;;18.40;99.90;;;;;;5033236;28;20174;-78
2021/09/16 15:25:50;;;;;;;11.90;10.43;;;18.40;99.90;;;;;;5033613;28;20181;-78
2021/09/16 15:28:16;;;;;;;11.93;9.27;;;18.30;99.90;;;;;;5033955;28;20575;-78
2021/09/16 15:30:42;;;;;;;11.07;9.97;;;18.30;99.90;;;;;;5032987;28;20208;-77
2021/09/16 15:33:08;;;;;;;10.83;9.70;;;18.40;99.90;;;;;;5032999;28;20256;-77
2021/09/16 15:35:33;;;;;;;13.20;9.07;;;18.40;99.90;;;;;;5033180;28;20444;-78
2021/09/16 15:37:59;;;;;;;10.30;8.90;;;18.40;99.90;;;;;;5032148;28;20417;-77
2021/09/16 15:40:25;;;;;;;9.93;8.93;;;18.40;99.90;;;;;;5032957;28;20180;-78
2021/09/16 15:42:51;;;;;;;10.90;8.93;;;18.40;99.90;;;;;;5031922;28;20237;-78
2021/09/16 15:45:16;;;;;;;12.23;8.40;;;18.30;99.90;;;;;;5033515;28;20415;-80
2021/09/16 15:47:42;;;;;;;9.47;7.83;;;18.30;99.90;;;;;;5033512;28;20174;-80
2021/09/16 15:50:10;;;;;;;8.47;7.67;;;18.30;99.90;;;;;;5033510;28;20174;-79
2021/09/16 15:52:36;;;;;;;9.20;8.20;;;18.20;99.90;;;;;;5032748;28;20193;-79
2021/09/16 15:55:06;;;;;;;9.80;7.90;;;18.20;99.90;;;;;;5033566;28;20452;-78
2021/09/16 15:57:35;;;;;;;12.10;7.23;;;18.20;99.90;;;;;;5032270;28;20937;-78
2021/09/16 16:00:01;;;;;;;8.53;7.37;;;18.20;99.90;;;;;;5031388;28;20536;-77
2021/09/16 16:02:26;;;;;;;8.67;6.80;;;18.20;99.90;;;;;;5031820;28;20440;-79
2021/09/16 16:04:53;;;;;;;7.40;6.37;;;18.10;99.90;;;;;;5031494;28;20438;-78
2021/09/16 16:07:19;;;;;;;8.63;6.00;;;18.10;99.90;;;;;;5031944;28;20170;-78
2021/09/16 16:09:44;;;;;;;8.67;7.80;;;18.10;99.90;;;;;;5031543;28;20466;-77
2021/09/16 16:12:10;;;;;;;7.87;6.30;;;18.00;99.90;;;;;;5031474;28;20193;-77
2021/09/16 16:14:35;;;;;;;7.67;6.63;;;17.90;99.90;;;;;;5031704;28;20169;-77
2021/09/16 16:17:01;;;;;;;7.37;6.53;;;17.90;99.90;;;;;;5031152;28;20181;-77
2021/09/16 16:19:26;;;;;;;6.93;6.33;;;17.70;99.90;;;;;;5031321;28;20713;-78
2021/09/16 16:21:52;;;;;;;7.97;7.13;;;17.70;99.90;;;;;;5031944;28;20233;-77
2021/09/16 16:24:17;;;;;;;7.40;6.60;;;17.70;99.90;;;;;;5031303;28;20221;-77
2021/09/16 16:26:43;;;;;;;7.07;6.10;;;17.70;99.90;;;;;;5031145;28;20562;-77
2021/09/16 16:29:09;;;;;;;7.43;6.50;;;17.60;99.90;;;;;;5030486;28;20259;-77
2021/09/16 16:31:34;;;;;;;9.63;6.80;;;17.50;99.90;;;;;;5030556;28;20213;-77
2021/09/16 16:34:00;;;;;;;6.93;6.23;;;17.50;99.90;;;;;;5034177;28;20588;-78
2021/09/16 16:36:25;;;;;;;10.03;7.23;;;17.50;99.90;;;;;;5035249;28;20177;-77
2021/09/16 16:38:51;;;;;;;7.50;6.30;;;17.40;99.90;;;;;;5035074;28;20193;-78
2021/09/16 16:41:17;;;;;;;6.87;6.27;;;17.40;99.90;;;;;;5035237;28;20194;-77
2021/09/16 16:43:43;;;;;;;8.30;6.57;;;17.40;99.90;;;;;;5034852;28;20758;-78
2021/09/16 16:46:09;;;;;;;8.27;6.70;;;17.40;99.90;;;;;;5035056;28;20639;-77
2021/09/16 16:48:34;;;;;;;7.20;6.50;;;17.40;99.90;;;;;;5017238;28;20217;-78
2021/09/16 16:51:01;;;;;;;7.30;6.33;;;17.30;99.90;;;;;;5034780;28;20436;-78
2021/09/16 16:53:27;;;;;;;7.70;6.17;;;17.40;99.90;;;;;;5034895;28;20683;-78
2021/09/16 16:55:52;;;;;;;6.10;5.50;;;17.30;99.90;;;;;;5034826;28;20543;-77
2021/09/16 16:58:18;;;;;;;7.80;6.20;;;17.30;99.90;;;;;;5034878;28;20178;-77
2021/09/16 17:00:43;;;;;;;8.37;6.80;;;17.20;99.90;;;;;;5034707;28;20206;-78
2021/09/16 17:03:09;;;;;;;7.00;6.30;;;17.20;99.90;;;;;;5034678;28;20177;-77
2021/09/16 17:05:35;;;;;;;7.10;6.00;;;17.20;99.90;;;;;;5034972;28;20173;-77
2021/09/16 17:08:04;;;;;;;7.33;6.00;;;17.10;99.90;;;;;;5034715;28;20194;-78
2021/09/16 17:10:31;;;;;;;7.80;5.37;;;17.00;99.90;;;;;;5034881;28;20189;-76